Time;durP1;ratioP1;P1;durP2;ratioP2;P2;SDS_P1;SDS_P2;PMS_P1;PMS_P2;Temp;Humidity;BMP_temperature;BMP_pressure;BME280_temperature;BME280_humidity;BME280_pressure;Samples;Min_cycle;Max_cycle;Signal;HPM_P1;HPM_P2
2022/02/23 00:00:19;;;;;;;6.78;1.83;;;;;;;6.69;84.58;100816.41;5046917;28;20032;-74
2022/02/23 00:02:45;;;;;;;5.70;1.65;;;;;;;6.68;84.77;100828.94;5044304;28;20053;-74
2022/02/23 00:05:11;;;;;;;1.98;1.40;;;;;;;6.66;84.85;100823.81;5045743;28;20134;-75
2022/02/23 00:07:36;;;;;;;3.38;1.10;;;;;;;6.63;84.85;100874.81;5045296;28;20036;-74
2022/02/23 00:10:03;;;;;;;7.18;1.33;;;;;;;6.55;84.18;100871.63;5042238;28;20025;-74
2022/02/23 00:12:28;;;;;;;4.90;1.38;;;;;;;6.46;83.61;100888.91;5038555;28;20103;-76
2022/02/23 00:14:57;;;;;;;6.18;1.30;;;;;;;6.41;83.03;100892.22;5041909;28;20151;-75
2022/02/23 00:17:25;;;;;;;4.57;1.45;;;;;;;6.33;82.76;100895.97;5041224;28;20029;-75
2022/02/23 00:19:51;;;;;;;6.80;1.20;;;;;;;6.33;82.24;100895.16;5043292;28;20025;-75
2022/02/23 00:22:17;;;;;;;11.65;1.80;;;;;;;6.33;82.04;100908.47;5042553;28;20029;-75
2022/02/23 00:24:43;;;;;;;6.18;2.00;;;;;;;6.33;81.83;100905.81;5043434;28;20100;-75
2022/02/23 00:27:08;;;;;;;10.10;2.00;;;;;;;6.33;81.33;100906.63;5043395;28;20033;-75
2022/02/23 00:29:35;;;;;;;10.20;2.22;;;;;;;6.32;80.90;100920.97;5046566;28;20120;-75
2022/02/23 00:32:01;;;;;;;10.57;2.20;;;;;;;6.34;80.71;100921.56;5043064;28;20029;-75
2022/02/23 00:34:27;;;;;;;8.70;1.70;;;;;;;6.36;80.64;100922.16;5043201;28;20021;-75
2022/02/23 00:36:54;;;;;;;16.65;2.10;;;;;;;6.36;80.02;100932.78;5043729;28;20039;-74
2022/02/23 00:39:20;;;;;;;8.30;2.30;;;;;;;6.35;79.80;100941.81;5039161;28;20464;-75
2022/02/23 00:41:46;;;;;;;10.85;2.25;;;;;;;6.39;79.83;100944.84;5042869;28;20040;-75
2022/02/23 00:44:12;;;;;;;8.73;2.30;;;;;;;6.41;79.36;100947.28;5044486;28;20025;-75
2022/02/23 00:46:38;;;;;;;8.18;1.95;;;;;;;6.42;79.32;100956.91;5041979;28;20025;-76
2022/02/23 00:49:03;;;;;;;12.32;2.30;;;;;;;6.42;78.95;100964.88;5048822;28;20590;-75
2022/02/23 00:51:29;;;;;;;8.00;2.35;;;;;;;6.41;78.73;100969.41;5044453;28;20055;-75
2022/02/23 00:53:54;;;;;;;9.80;1.60;;;;;;;6.40;78.39;100990.91;5045425;28;20032;-75
2022/02/23 00:56:20;;;;;;;14.15;2.60;;;;;;;6.41;78.31;100995.19;5046209;28;20454;-75
2022/02/23 00:58:45;;;;;;;13.85;1.92;;;;;;;6.41;77.81;101003.19;5045139;28;20060;-75
2022/02/23 01:01:11;;;;;;;13.05;2.42;;;;;;;6.41;77.42;101003.19;5044153;28;20120;-75
2022/02/23 01:03:37;;;;;;;13.35;3.00;;;;;;;6.44;77.68;101018.72;5049471;28;20108;-75
2022/02/23 01:06:03;;;;;;;15.32;2.55;;;;;;;6.43;77.23;101025.06;5045541;28;20119;-75
2022/02/23 01:08:28;;;;;;;12.57;2.50;;;;;;;6.44;76.92;101021.38;5043924;28;20437;-75
2022/02/23 01:10:54;;;;;;;17.75;2.42;;;;;;;6.48;76.60;101025.28;5040531;28;20036;-74
2022/02/23 01:13:19;;;;;;;13.35;2.63;;;;;;;6.48;76.80;101031.41;5040018;28;20056;-75
2022/02/23 01:15:45;;;;;;;11.25;2.17;;;;;;;6.48;76.80;101038.59;5042356;28;20558;-75
2022/02/23 01:18:11;;;;;;;13.98;2.10;;;;;;;6.48;76.90;101035.91;5043935;28;20036;-75
2022/02/23 01:20:37;;;;;;;13.40;2.05;;;;;;;6.43;76.62;101036.53;5044703;28;20560;-75
2022/02/23 01:23:03;;;;;;;14.45;2.65;;;;;;;6.41;76.92;101043.09;5042256;28;20082;-76
2022/02/23 01:25:31;;;;;;;14.73;2.13;;;;;;;6.35;76.50;101048.25;5045249;28;20029;-75
2022/02/23 01:27:59;;;;;;;11.48;2.88;;;;;;;6.35;76.90;101048.25;5065558;28;20490;-75
2022/02/23 01:30:25;;;;;;;9.95;2.70;;;;;;;6.36;76.15;101052.56;5050500;28;20028;-75
2022/02/23 01:32:51;;;;;;;18.15;2.20;;;;;;;6.36;76.06;101059.72;5047317;28;20118;-75
2022/02/23 01:35:16;;;;;;;10.38;2.08;;;;;;;6.36;76.27;101059.72;5051472;28;20029;-75
2022/02/23 01:37:42;;;;;;;8.05;2.20;;;;;;;6.34;75.45;101061.78;5044665;28;20510;-75
2022/02/23 01:40:09;;;;;;;11.85;2.20;;;;;;;6.36;75.53;101063.19;5049815;28;20027;-75
2022/02/23 01:42:34;;;;;;;16.55;3.08;;;;;;;6.37;75.14;101069.34;5042825;28;20030;-75
2022/02/23 01:45:00;;;;;;;13.98;2.95;;;;;;;6.36;74.92;101075.69;5046973;28;20039;-76
2022/02/23 01:47:26;;;;;;;14.20;2.65;;;;;;;6.34;74.85;101083.88;5044746;28;20037;-76
2022/02/23 01:49:53;;;;;;;15.15;2.28;;;;;;;6.31;74.09;101097.63;5049711;28;20139;-76
2022/02/23 01:52:19;;;;;;;13.07;2.45;;;;;;;6.30;74.01;101103.97;5047256;28;20501;-76
2022/02/23 01:54:45;;;;;;;17.85;2.97;;;;;;;6.28;73.92;101108.69;5046947;28;20049;-76
2022/02/23 01:57:10;;;;;;;11.63;3.05;;;;;;;6.24;73.74;101110.13;5046791;28;20057;-76
2022/02/23 01:59:36;;;;;;;14.95;2.63;;;;;;;6.23;73.50;101115.66;5045340;28;20479;-76
2022/02/23 02:02:02;;;;;;;15.38;2.30;;;;;;;6.24;73.49;101122.59;5047886;28;20497;-76
2022/02/23 02:04:27;;;;;;;14.45;2.78;;;;;;;6.23;73.74;101127.13;5048610;28;20033;-76
2022/02/23 02:06:53;;;;;;;16.80;2.28;;;;;;;6.21;73.51;101126.50;5046879;28;20036;-76
2022/02/23 02:09:19;;;;;;;13.10;2.53;;;;;;;6.21;73.54;101134.50;5047528;28;20021;-76
2022/02/23 02:11:45;;;;;;;13.32;2.63;;;;;;;6.22;73.36;101135.31;5048767;28;20032;-76
2022/02/23 02:14:10;;;;;;;17.10;3.17;;;;;;;6.19;73.23;101131.22;5046814;28;20025;-76
2022/02/23 02:16:37;;;;;;;17.67;3.25;;;;;;;6.19;73.25;101144.53;5042720;28;20044;-76
2022/02/23 02:19:04;;;;;;;16.73;2.55;;;;;;;6.16;73.08;101150.28;5043006;28;20068;-77
2022/02/23 02:21:49;;;;;;;18.98;3.00;;;;;;;6.13;72.59;101156.03;5044585;28;20064;-75
2022/02/23 02:24:14;;;;;;;;;;;;;;;5.95;71.40;101166.50;5061413;28;20468;-76
2022/02/23 02:26:40;;;;;;;13.05;2.83;;;;;;;6.03;72.25;101167.06;5046937;28;19923;-76
2022/02/23 02:29:06;;;;;;;14.52;3.13;;;;;;;6.06;72.18;101176.47;5050688;28;20037;-76
2022/02/23 02:31:31;;;;;;;16.02;2.95;;;;;;;6.01;71.71;101186.94;5045155;28;20025;-76
2022/02/23 02:33:57;;;;;;;20.98;2.97;;;;;;;6.05;72.02;101183.66;5048111;28;20028;-76
2022/02/23 02:36:22;;;;;;;19.50;3.22;;;;;;;6.05;71.70;101196.13;5049766;28;20029;-76
2022/02/23 02:38:48;;;;;;;14.93;2.88;;;;;;;6.06;71.64;101198.56;5047288;28;20032;-76
2022/02/23 02:41:14;;;;;;;15.02;2.53;;;;;;;6.05;71.35;101201.44;5047161;28;20504;-76
2022/02/23 02:43:39;;;;;;;15.25;2.60;;;;;;;6.06;71.35;101208.41;5045500;28;20537;-76
2022/02/23 02:46:05;;;;;;;14.93;3.30;;;;;;;6.02;71.29;101208.00;5045613;28;20067;-76
2022/02/23 02:48:30;;;;;;;19.40;3.42;;;;;;;6.01;70.98;101208.22;5049616;28;20060;-75
2022/02/23 02:50:56;;;;;;;17.75;3.30;;;;;;;5.99;70.82;101221.72;5045471;28;20086;-76
2022/02/23 02:53:21;;;;;;;20.13;3.35;;;;;;;5.96;71.01;101218.66;5047614;28;20159;-76
2022/02/23 02:55:47;;;;;;;17.73;3.00;;;;;;;5.96;70.86;101226.63;5063167;28;20036;-76
2022/02/23 02:58:13;;;;;;;26.17;3.55;;;;;;;5.95;70.68;101228.47;5053216;28;20029;-76
2022/02/23 03:00:39;;;;;;;15.52;2.63;;;;;;;5.97;70.54;101220.28;5048812;28;20535;-76
2022/02/23 03:03:05;;;;;;;12.80;2.85;;;;;;;5.96;70.96;101227.47;5044973;28;20067;-76
2022/02/23 03:05:31;;;;;;;21.40;3.72;;;;;;;5.99;70.67;101239.53;5045551;28;20491;-76
2022/02/23 03:07:58;;;;;;;24.70;3.08;;;;;;;5.99;70.78;101247.50;5042654;28;20409;-76
2022/02/23 03:10:24;;;;;;;19.60;3.65;;;;;;;6.00;70.59;101249.97;5044817;28;20021;-77
2022/02/23 03:12:49;;;;;;;15.63;3.50;;;;;;;6.02;70.92;101257.72;5047631;28;20595;-75
2022/02/23 03:15:15;;;;;;;12.95;3.25;;;;;;;6.05;71.22;101255.47;5042038;28;20032;-76
2022/02/23 03:17:41;;;;;;;19.52;3.05;;;;;;;6.07;70.83;101261.41;5045999;28;20035;-76
2022/02/23 03:20:07;;;;;;;21.63;2.75;;;;;;;6.06;71.01;101250.97;5048790;28;20040;-76
2022/02/23 03:22:36;;;;;;;13.00;2.58;;;;;;;6.02;71.06;101261.19;5049005;28;20500;-76
2022/02/23 03:25:03;;;;;;;15.85;2.50;;;;;;;6.00;71.19;101265.09;5043485;28;21336;-75
2022/02/23 03:29:58;;;;;;;18.17;3.25;;;;;;;5.96;71.58;101272.66;5057506;28;20053;-75
2022/02/23 03:32:23;;;;;;;17.42;3.33;;;;;;;5.92;71.99;101286.56;5058142;28;20029;-75
2022/02/23 03:34:49;;;;;;;15.55;3.88;;;;;;;5.91;72.01;101287.59;5059418;28;20031;-72
2022/02/23 03:37:15;;;;;;;10.52;2.75;;;;;;;5.92;72.23;101291.88;5058827;28;20028;-72
2022/02/23 03:39:40;;;;;;;16.27;2.90;;;;;;;5.90;71.86;101301.91;5064378;28;20024;-72
2022/02/23 03:42:06;;;;;;;19.52;3.13;;;;;;;5.93;72.25;101301.53;5057130;28;20027;-72
2022/02/23 03:44:32;;;;;;;19.45;4.00;;;;;;;5.95;72.11;101312.78;5059538;28;20056;-76
2022/02/23 03:46:57;;;;;;;18.45;3.22;;;;;;;5.92;72.19;101315.81;5062764;28;20032;-73
2022/02/23 03:49:23;;;;;;;17.52;2.47;;;;;;;5.91;72.44;101311.53;5055542;28;20394;-73
2022/02/23 03:51:48;;;;;;;16.30;3.08;;;;;;;5.86;72.64;101313.94;5057865;28;20489;-72
2022/02/23 03:54:14;;;;;;;17.80;2.72;;;;;;;5.88;72.43;101326.03;5058238;28;20477;-72
2022/02/23 03:56:40;;;;;;;14.98;3.22;;;;;;;5.81;72.28;101327.84;5057647;28;20101;-75
2022/02/23 03:59:13;;;;;;;11.90;3.17;;;;;;;5.76;72.38;101327.66;5057469;28;20029;-72
2022/02/23 04:01:42;;;;;;;11.50;3.15;;;;;;;5.71;72.55;101338.88;5060621;28;20585;-75
2022/02/23 04:04:08;;;;;;;16.88;2.88;;;;;;;5.69;72.80;101345.41;5057416;28;20082;-72
2022/02/23 04:06:35;;;;;;;18.00;3.00;;;;;;;5.71;72.73;101343.38;5056200;28;20035;-72
2022/02/23 04:09:04;;;;;;;16.20;2.92;;;;;;;5.70;72.59;101349.72;5058381;28;21730;-73
2022/02/23 04:11:29;;;;;;;16.95;2.50;;;;;;;5.65;72.65;101366.28;5056661;28;20029;-72
2022/02/23 04:13:55;;;;;;;12.02;2.83;;;;;;;5.62;72.77;101364.03;5059155;28;20687;-74
2022/02/23 04:16:20;;;;;;;17.65;3.42;;;;;;;5.60;72.91;101371.38;5059241;28;20569;-72
2022/02/23 04:18:46;;;;;;;12.52;2.30;;;;;;;5.58;72.85;101384.06;5058398;28;20025;-72
2022/02/23 04:21:12;;;;;;;15.55;2.75;;;;;;;5.57;73.10;101386.91;5060563;28;20042;-72
2022/02/23 04:23:38;;;;;;;16.70;2.40;;;;;;;5.55;73.16;101389.75;5062491;28;20615;-73
2022/02/23 04:26:04;;;;;;;14.25;2.70;;;;;;;5.50;72.91;101400.16;5059463;28;20159;-73
2022/02/23 04:28:31;;;;;;;10.00;2.58;;;;;;;5.53;73.15;101381.16;5057665;28;20024;-72
2022/02/23 04:30:59;;;;;;;12.68;2.25;;;;;;;5.48;72.58;101396.88;5061329;28;20481;-72
2022/02/23 04:33:25;;;;;;;12.00;2.78;;;;;;;5.46;72.58;101414.88;5055264;28;20493;-72
2022/02/23 04:35:51;;;;;;;13.00;2.30;;;;;;;5.46;72.72;101414.88;5059413;28;20024;-73
2022/02/23 04:38:17;;;;;;;8.68;2.90;;;;;;;5.43;72.36;101409.97;5057549;28;20032;-72
2022/02/23 04:40:43;;;;;;;18.55;2.92;;;;;;;5.41;72.40;101433.25;5059483;28;20028;-72
2022/02/23 04:43:14;;;;;;;12.35;2.00;;;;;;;5.40;72.41;101426.31;5059465;28;20095;-72
2022/02/23 04:45:40;;;;;;;12.88;1.88;;;;;;;5.42;72.39;101434.91;5056625;28;20602;-72
2022/02/23 04:48:06;;;;;;;18.25;2.88;;;;;;;5.45;72.55;101439.81;5059850;28;20424;-72
2022/02/23 04:50:32;;;;;;;12.10;3.00;;;;;;;5.46;72.41;101462.72;5063189;28;20029;-75
2022/02/23 04:52:58;;;;;;;18.48;3.10;;;;;;;5.49;72.54;101458.84;5060371;28;20039;-74
2022/02/23 04:55:24;;;;;;;16.48;2.50;;;;;;;5.52;72.34;101464.56;5061415;28;20033;-74
2022/02/23 04:57:49;;;;;;;11.15;2.20;;;;;;;5.55;72.48;101469.50;5056047;28;20501;-72
2022/02/23 05:00:15;;;;;;;11.27;3.33;;;;;;;5.54;72.51;101483.81;5061217;28;20024;-72
2022/02/23 05:02:41;;;;;;;12.55;2.25;;;;;;;5.55;72.90;101472.16;5061005;28;20382;-73
2022/02/23 05:05:07;;;;;;;12.57;2.20;;;;;;;5.60;72.88;101480.38;5060015;28;20155;-72
2022/02/23 05:07:36;;;;;;;8.88;2.53;;;;;;;5.60;72.56;101496.31;5061008;28;20025;-75
2022/02/23 05:10:03;;;;;;;17.38;2.40;;;;;;;5.64;72.66;101486.09;5062717;28;20104;-72
2022/02/23 05:12:28;;;;;;;13.93;3.25;;;;;;;5.63;72.52;101495.94;5057423;28;20556;-73
2022/02/23 05:14:54;;;;;;;29.70;3.53;;;;;;;5.61;72.81;101505.94;5064032;28;20024;-72
2022/02/23 05:17:19;;;;;;;15.80;2.42;;;;;;;5.62;72.39;101504.09;5060520;28;20029;-72
2022/02/23 05:19:46;;;;;;;10.82;2.25;;;;;;;5.63;72.73;101503.91;5064264;28;20158;-72
2022/02/23 05:22:12;;;;;;;13.63;2.83;;;;;;;5.67;72.32;101513.13;5059991;28;20123;-72
2022/02/23 05:24:38;;;;;;;13.05;2.30;;;;;;;5.67;72.51;101513.13;5062889;28;20039;-72
2022/02/23 05:27:05;;;;;;;11.25;2.50;;;;;;;5.67;71.99;101520.28;5059929;28;20017;-71
2022/02/23 05:29:34;;;;;;;17.02;4.28;;;;;;;5.69;72.33;101528.88;5055561;28;20017;-73
2022/02/23 05:32:00;;;;;;;10.82;2.35;;;;;;;5.70;72.11;101527.84;5058093;28;20029;-72
2022/02/23 05:34:25;;;;;;;11.95;2.58;;;;;;;5.71;72.23;101532.97;5060617;28;20023;-72
2022/02/23 05:36:51;;;;;;;11.55;2.25;;;;;;;5.68;72.26;101525.41;5060192;28;20032;-74
2022/02/23 05:39:17;;;;;;;19.40;2.35;;;;;;;5.65;72.02;101547.06;5062908;28;20029;-72
2022/02/23 05:41:43;;;;;;;16.10;2.40;;;;;;;5.64;72.09;101552.56;5058611;28;20166;-72
2022/02/23 05:44:09;;;;;;;14.35;2.25;;;;;;;5.65;72.11;101560.34;5057471;28;20020;-72
2022/02/23 05:46:35;;;;;;;11.38;2.80;;;;;;;5.67;71.98;101562.81;5058208;28;20056;-73
2022/02/23 05:49:00;;;;;;;16.60;2.55;;;;;;;5.68;71.78;101567.13;5058769;28;20024;-72
2022/02/23 05:51:31;;;;;;;10.13;2.83;;;;;;;5.70;71.82;101573.88;5060514;28;20077;-73
2022/02/23 05:53:58;;;;;;;13.30;2.30;;;;;;;5.73;71.90;101578.78;5060405;28;20032;-72
2022/02/23 05:56:25;;;;;;;21.38;2.55;;;;;;;5.77;71.78;101581.91;5061482;28;20032;-73
2022/02/23 05:58:51;;;;;;;11.73;2.35;;;;;;;5.77;71.73;101597.88;5063362;28;20029;-73
2022/02/23 06:01:16;;;;;;;14.50;3.00;;;;;;;5.78;71.91;101604.00;5057338;28;20064;-72
2022/02/23 06:03:42;;;;;;;15.70;2.67;;;;;;;5.75;71.77;101599.91;5058684;28;20471;-72
2022/02/23 06:06:09;;;;;;;16.13;2.70;;;;;;;5.77;71.68;101603.19;5062632;28;20036;-73
2022/02/23 06:08:36;;;;;;;19.65;2.80;;;;;;;5.74;71.80;101615.03;5059772;28;20020;-73
2022/02/23 06:11:03;;;;;;;19.08;3.03;;;;;;;5.73;71.70;101609.88;5062200;28;20064;-73
2022/02/23 06:13:28;;;;;;;7.43;2.17;;;;;;;5.71;71.61;101611.91;5059138;28;20059;-75
2022/02/23 06:15:54;;;;;;;9.95;2.90;;;;;;;5.71;71.97;101611.91;5059808;28;20909;-72
2022/02/23 06:18:20;;;;;;;16.70;2.30;;;;;;;5.66;71.66;101619.66;5059716;28;20028;-73
2022/02/23 06:20:45;;;;;;;16.10;2.72;;;;;;;5.65;72.09;101624.16;5062125;28;20107;-72
2022/02/23 06:23:11;;;;;;;9.52;2.95;;;;;;;5.63;71.76;101634.16;5064935;28;20486;-72
2022/02/23 06:25:36;;;;;;;20.27;3.67;;;;;;;5.62;71.85;101621.06;5063388;28;20032;-74
2022/02/23 06:28:02;;;;;;;8.65;2.30;;;;;;;5.59;71.99;101640.91;5058345;28;20056;-72
2022/02/23 06:30:28;;;;;;;13.15;2.85;;;;;;;5.56;71.71;101645.75;5064374;28;20042;-73
2022/02/23 06:32:54;;;;;;;14.13;2.78;;;;;;;5.55;72.00;101646.78;5058033;28;20040;-74
2022/02/23 06:35:20;;;;;;;11.48;2.28;;;;;;;5.50;71.74;101647.34;5059917;28;20105;-73
2022/02/23 06:37:46;;;;;;;15.38;2.97;;;;;;;5.52;71.83;101655.97;5068054;28;20024;-72
2022/02/23 06:40:12;;;;;;;12.15;2.67;;;;;;;5.54;72.05;101664.56;5061978;28;20020;-73
2022/02/23 06:42:38;;;;;;;15.70;2.88;;;;;;;5.53;72.25;101673.53;5064061;28;20658;-75
2022/02/23 06:45:05;;;;;;;15.85;2.80;;;;;;;5.54;72.06;101671.72;5061175;28;20028;-72
2022/02/23 06:47:31;;;;;;;18.52;2.58;;;;;;;5.54;72.19;101683.16;5063366;28;20608;-74
2022/02/23 06:49:56;;;;;;;12.10;2.47;;;;;;;5.55;72.17;101691.97;5061490;28;20106;-72
2022/02/23 06:52:22;;;;;;;17.67;2.92;;;;;;;5.60;72.33;101697.53;5063363;28;20024;-73
2022/02/23 06:54:49;;;;;;;14.98;2.75;;;;;;;5.62;71.96;101701.66;5057326;28;20025;-72
2022/02/23 06:57:14;;;;;;;15.30;3.63;;;;;;;5.66;72.13;101700.25;5052906;28;20104;-72
2022/02/23 06:59:40;;;;;;;14.65;2.58;;;;;;;5.68;72.30;101708.03;5055786;28;20480;-74
2022/02/23 07:02:08;;;;;;;14.20;2.70;;;;;;;5.70;72.32;101706.00;5054746;28;20056;-73
2022/02/23 07:04:34;;;;;;;14.98;3.67;;;;;;;5.69;72.32;101707.84;5062911;28;20028;-75
2022/02/23 07:07:00;;;;;;;15.70;3.53;;;;;;;5.70;72.28;101713.97;5062014;28;20028;-75
2022/02/23 07:09:25;;;;;;;10.52;2.53;;;;;;;5.74;72.73;101725.88;5060622;28;20017;-73
2022/02/23 07:11:52;;;;;;;19.80;2.83;;;;;;;5.81;72.60;101733.91;5057247;28;20028;-73
2022/02/23 07:14:19;;;;;;;12.40;3.50;;;;;;;5.89;72.19;101739.09;5063532;28;20027;-73
2022/02/23 07:16:45;;;;;;;20.85;2.90;;;;;;;5.91;72.12;101737.06;5060787;28;20025;-73
2022/02/23 07:19:10;;;;;;;21.52;3.45;;;;;;;5.94;72.55;101747.34;5059845;28;20052;-72
2022/02/23 07:21:38;;;;;;;13.45;3.22;;;;;;;5.98;72.33;101754.75;5063121;28;20027;-74
2022/02/23 07:24:05;;;;;;;18.75;5.07;;;;;;;6.03;72.12;101762.16;5060181;28;20082;-73
2022/02/23 07:26:31;;;;;;;16.60;3.03;;;;;;;6.08;72.18;101765.03;5058320;28;20029;-72
2022/02/23 07:28:57;;;;;;;17.15;3.03;;;;;;;6.13;72.46;101765.31;5058489;28;20060;-73
2022/02/23 07:31:24;;;;;;;26.40;3.25;;;;;;;6.16;72.18;101767.56;5059595;28;20020;-74
2022/02/23 07:33:51;;;;;;;12.85;2.35;;;;;;;6.17;72.35;101769.22;5063862;28;20158;-72
2022/02/23 07:36:18;;;;;;;13.35;2.40;;;;;;;6.19;72.70;101777.00;5061059;28;20052;-73
2022/02/23 07:38:45;;;;;;;8.80;2.60;;;;;;;6.27;72.15;101782.97;5061533;28;20092;-73
2022/02/23 07:41:13;;;;;;;17.08;2.90;;;;;;;6.30;72.14;101785.28;5060426;28;20032;-73
2022/02/23 07:43:39;;;;;;;10.50;3.65;;;;;;;6.34;72.22;101785.72;5059747;28;20505;-75
2022/02/23 07:46:05;;;;;;;15.63;2.97;;;;;;;6.36;72.24;101797.81;5060491;28;20039;-74
2022/02/23 07:48:32;;;;;;;16.52;2.78;;;;;;;6.41;72.51;101799.88;5064615;28;20119;-73
2022/02/23 07:50:58;;;;;;;13.85;3.67;;;;;;;6.42;72.18;101801.53;5060354;28;20029;-76
2022/02/23 07:53:27;;;;;;;15.85;2.92;;;;;;;6.47;72.30;101807.09;5060217;28;20087;-75
2022/02/23 07:55:52;;;;;;;11.50;3.08;;;;;;;6.53;72.28;101811.63;5059164;28;20066;-73
2022/02/23 07:58:18;;;;;;;11.23;2.75;;;;;;;6.59;72.19;101807.38;5061126;28;20915;-74
2022/02/23 08:00:43;;;;;;;19.13;2.90;;;;;;;6.63;72.40;101822.75;5057803;28;20032;-73
2022/02/23 08:03:09;;;;;;;12.40;2.70;;;;;;;6.66;72.33;101813.56;5057488;28;20112;-72
2022/02/23 08:05:35;;;;;;;16.85;3.92;;;;;;;6.73;72.00;101818.91;5062257;28;20476;-73
2022/02/23 08:08:01;;;;;;;17.20;3.13;;;;;;;6.77;71.82;101817.50;5056078;28;20039;-73
2022/02/23 08:10:27;;;;;;;12.57;3.20;;;;;;;6.80;71.75;101835.75;5062459;28;20032;-74
2022/02/23 08:12:55;;;;;;;18.52;3.88;;;;;;;6.93;71.95;101827.84;5061054;28;20151;-73
2022/02/23 08:20:50;;;;;;;14.45;2.67;;;;;;;7.11;71.59;101846.78;5056706;28;20130;-74
2022/02/23 08:23:17;;;;;;;12.75;2.67;;;;;;;7.17;71.42;101855.81;5058283;28;20472;-73
2022/02/23 08:25:43;;;;;;;14.27;3.20;;;;;;;7.23;70.96;101860.38;5060445;28;20016;-73
2022/02/23 08:28:09;;;;;;;12.55;3.22;;;;;;;7.28;70.59;101857.94;5060473;28;20052;-72
2022/02/23 08:30:35;;;;;;;20.65;2.83;;;;;;;7.30;70.56;101863.06;5056607;28;20097;-73
2022/02/23 08:33:03;;;;;;;15.07;3.05;;;;;;;7.27;70.38;101865.09;5064818;28;20153;-73
2022/02/23 08:35:32;;;;;;;13.82;2.85;;;;;;;7.31;70.66;101873.53;5060971;28;20021;-73
2022/02/23 08:37:58;;;;;;;17.25;2.75;;;;;;;7.42;70.33;101870.28;5066737;28;20028;-73
2022/02/23 08:40:24;;;;;;;18.15;2.53;;;;;;;7.52;70.17;101870.72;5062369;28;20520;-72
2022/02/23 08:42:50;;;;;;;11.63;2.50;;;;;;;7.62;69.94;101874.88;5061777;28;20049;-73
2022/02/23 08:45:15;;;;;;;26.92;2.80;;;;;;;7.66;69.55;101860.09;5059883;28;20478;-73
2022/02/23 08:47:41;;;;;;;16.73;3.20;;;;;;;7.69;69.26;101878.38;5062746;28;20073;-73
2022/02/23 08:50:07;;;;;;;9.10;2.25;;;;;;;7.72;68.88;101869.94;5063129;28;20021;-73
2022/02/23 08:52:33;;;;;;;14.13;2.22;;;;;;;7.76;69.08;101882.72;5071750;28;20033;-75
2022/02/23 08:54:59;;;;;;;12.55;3.28;;;;;;;7.88;68.93;101877.59;5062811;28;20060;-73
2022/02/23 08:57:26;;;;;;;18.98;2.75;;;;;;;7.90;68.37;101880.91;5066673;28;20032;-73
2022/02/23 08:59:51;;;;;;;16.65;2.97;;;;;;;7.96;68.08;101890.75;5067091;28;20047;-73
2022/02/23 09:02:17;;;;;;;12.48;2.40;;;;;;;8.04;68.24;101903.06;5062756;28;20562;-73
2022/02/23 09:04:43;;;;;;;8.68;2.10;;;;;;;8.14;68.00;101899.00;5065959;28;20029;-72
2022/02/23 09:07:10;;;;;;;13.10;2.40;;;;;;;8.24;67.78;101901.25;5066246;28;20046;-73
2022/02/23 09:09:37;;;;;;;7.97;2.10;;;;;;;8.34;67.09;101917.72;5067153;28;20134;-73
2022/02/23 09:12:04;;;;;;;16.65;2.53;;;;;;;8.37;66.58;101919.16;5064187;28;20604;-73
2022/02/23 09:14:30;;;;;;;11.57;2.80;;;;;;;8.34;66.25;101919.56;5060787;28;20058;-73
2022/02/23 09:16:56;;;;;;;17.42;2.25;;;;;;;8.36;65.62;101920.19;5063460;28;20024;-73
2022/02/23 09:19:22;;;;;;;11.68;2.88;;;;;;;8.37;65.32;101924.50;5061197;28;20024;-73
2022/02/23 09:21:47;;;;;;;7.38;1.88;;;;;;;8.39;65.31;101927.78;5061026;28;20036;-73
2022/02/23 09:24:13;;;;;;;8.35;2.17;;;;;;;8.38;64.96;101928.81;5063510;28;20032;-73
2022/02/23 09:26:39;;;;;;;13.73;2.53;;;;;;;8.34;64.25;101933.75;5064394;28;20421;-75
2022/02/23 09:29:06;;;;;;;8.10;1.67;;;;;;;8.40;64.18;101942.78;5066262;22;20349;-79
2022/02/23 09:31:32;;;;;;;9.98;2.70;;;;;;;8.46;63.46;101950.00;5049587;28;20033;-78
2022/02/23 09:33:58;;;;;;;14.35;2.33;;;;;;;8.52;63.31;101957.19;5045665;28;20305;-77
2022/02/23 09:36:24;;;;;;;13.95;2.65;;;;;;;8.53;62.57;101953.47;5052392;28;20040;-79
2022/02/23 09:38:51;;;;;;;12.57;2.00;;;;;;;8.53;62.04;101956.16;5050281;28;20021;-79
2022/02/23 09:41:18;;;;;;;7.25;2.20;;;;;;;8.58;61.84;101964.38;5054322;28;20105;-79
2022/02/23 09:43:47;;;;;;;9.98;1.92;;;;;;;8.67;61.64;101978.34;5057316;28;20017;-79
2022/02/23 09:46:18;;;;;;;18.25;2.30;;;;;;;8.69;61.13;101974.44;5061408;28;20040;-79
2022/02/23 09:48:44;;;;;;;8.10;2.05;;;;;;;8.60;60.98;101975.66;5056857;28;20071;-79
2022/02/23 09:51:10;;;;;;;14.52;2.20;;;;;;;8.62;61.48;101978.97;5051187;28;20667;-79
2022/02/23 09:53:38;;;;;;;13.55;2.60;;;;;;;8.68;61.45;101980.81;5054473;28;20078;-79
2022/02/23 09:56:04;;;;;;;10.80;2.20;;;;;;;8.69;60.98;101995.81;5060483;28;20036;-79
2022/02/23 09:58:30;;;;;;;11.77;2.03;;;;;;;8.67;61.36;101992.53;5055554;28;20632;-79
2022/02/23 10:00:56;;;;;;;10.48;2.03;;;;;;;8.68;61.26;102004.88;5054690;28;20116;-79
2022/02/23 10:03:24;;;;;;;11.02;2.40;;;;;;;8.66;61.03;102000.75;5060416;28;20017;-80
2022/02/23 10:05:50;;;;;;;6.80;2.03;;;;;;;8.70;60.70;102010.00;5055706;28;20040;-79
2022/02/23 10:08:16;;;;;;;14.00;2.25;;;;;;;8.67;60.58;102013.91;5055195;28;20020;-79
2022/02/23 10:10:45;;;;;;;9.70;2.05;;;;;;;8.66;60.81;102032.81;5050847;28;20071;-79
2022/02/23 10:13:11;;;;;;;9.57;2.40;;;;;;;8.71;60.93;102023.16;5048076;28;20158;-79
2022/02/23 10:15:45;;;;;;;9.50;1.95;;;;;;;8.73;60.57;102029.13;5053750;28;20460;-79
2022/02/23 10:18:15;;;;;;;7.95;1.42;;;;;;;8.76;61.00;102035.91;5065574;28;20122;-80
2022/02/23 10:20:41;;;;;;;10.57;1.75;;;;;;;8.74;60.33;102030.75;5055940;28;20557;-79
2022/02/23 10:23:20;;;;;;;13.25;2.40;;;;;;;8.71;60.29;102055.22;5057250;28;20029;-79
2022/02/23 10:25:53;;;;;;;8.82;1.88;;;;;;;8.65;59.07;102049.88;5059183;28;20079;-79
2022/02/23 10:28:22;;;;;;;11.48;2.65;;;;;;;8.71;59.73;102052.56;5061813;28;20029;-79
2022/02/23 10:30:59;;;;;;;10.77;1.80;;;;;;;8.81;59.20;102060.19;5051778;28;20060;-79
2022/02/23 10:33:26;;;;;;;12.50;1.63;;;;;;;8.98;59.57;102064.09;5050129;28;20021;-78
2022/02/23 10:36:10;;;;;;;11.20;2.55;;;;;;;9.08;58.54;102055.66;5053729;28;20040;-79
2022/02/23 10:38:45;;;;;;;9.65;2.20;;;;;;;9.17;58.43;102066.97;5049130;28;20063;-79
2022/02/23 10:41:30;;;;;;;8.20;2.05;;;;;;;9.13;58.02;102066.53;5056039;28;20532;-80
2022/02/23 10:43:56;;;;;;;;;;;;;;;9.18;57.27;102074.78;5053422;28;20039;-79
2022/02/23 10:46:23;;;;;;;14.85;2.67;;;;;;;9.32;58.34;102070.22;5060196;28;19916;-78
2022/02/23 10:48:55;;;;;;;12.55;2.15;;;;;;;9.25;57.77;102085.47;5053919;28;20474;-79
2022/02/23 10:51:32;;;;;;;12.00;2.08;;;;;;;9.18;57.34;102082.00;5051099;28;20032;-79
2022/02/23 10:54:08;;;;;;;10.38;1.50;;;;;;;9.19;57.14;102087.13;5050175;28;20020;-80
2022/02/23 10:56:36;;;;;;;11.60;2.42;;;;;;;9.27;57.44;102088.75;5054530;28;20107;-80
2022/02/23 10:59:06;;;;;;;10.48;1.90;;;;;;;9.29;57.48;102087.53;5056072;28;20067;-79
2022/02/23 11:01:33;;;;;;;8.57;1.98;;;;;;;9.34;57.64;102103.78;5058843;28;20024;-79
2022/02/23 11:03:59;;;;;;;9.40;1.50;;;;;;;9.33;57.61;102096.78;5054589;28;20017;-79
2022/02/23 11:06:24;;;;;;;7.43;1.83;;;;;;;9.36;57.81;102093.72;5050879;28;20029;-79
2022/02/23 11:08:55;;;;;;;8.68;1.83;;;;;;;9.43;57.75;102099.03;5055723;28;20063;-80
2022/02/23 11:11:22;;;;;;;7.75;2.22;;;;;;;9.58;57.51;102096.16;5055278;28;20017;-79
2022/02/23 11:13:49;;;;;;;8.60;2.03;;;;;;;9.74;57.29;102102.91;5052769;28;20034;-79
2022/02/23 11:16:16;;;;;;;8.85;1.95;;;;;;;9.92;57.11;102106.56;5052644;28;20275;-80
2022/02/23 11:18:44;;;;;;;9.85;2.25;;;;;;;10.14;57.22;102103.63;5053464;28;20025;-79
2022/02/23 11:21:12;;;;;;;10.18;2.38;;;;;;;10.26;56.57;102108.13;5050783;28;20032;-78
2022/02/23 11:23:39;;;;;;;12.73;2.20;;;;;;;10.36;56.23;102112.19;5055300;28;20031;-80
2022/02/23 11:26:07;;;;;;;8.30;1.80;;;;;;;10.39;55.70;102125.16;5053277;28;20068;-80
2022/02/23 11:28:52;;;;;;;10.50;1.77;;;;;;;10.30;54.92;102111.19;5053293;28;20108;-80
2022/02/23 11:31:18;;;;;;;7.50;1.95;;;;;;;10.38;56.09;102121.66;5052861;28;20021;-80